Terminal Aerodrome Forecast
Issued by NWS

Home | Current Version | Previous Version | Text Only | Print | Product List | Glossary On
Versions: 1 2 3 4 5 6 7 8 9 10 11 12 13 14 15
383
FTUS44 KLZK 251120
TAFLIT
TAF
KLIT 251120Z 2512/2612 17007KT P6SM VCSH SCT025 BKN040
      TEMPO 2513/2516 TSRA BKN025CB
     FM251600 18007G16KT P6SM VCTS BKN030CB OVC250
     FM252100 20009KT P6SM SCT030 BKN060
     FM260600 18008KT 6SM BR BKN025=

USA.gov is the U.S. government's official web portal to all federal, state and local government web resources and services.